Aviation Digital Data Service (ADDS)

Output produced by METARs form (0439 UTC 24 January 2019)
found at http://www.aviationweather.gov/metar/data/
 
METAR text: FDMS 231400Z 08005KT CAVOK 31/16 Q1011 NOSIG
Conditions at: FDMS (MANZINI/MATSAPA , SZ) observed 1400 UTC 23 January 2019
Temperature: 31.0°C (88°F)
Dewpoint: 16.0°C (61°F) [RH = 40%]
Pressure (altimeter): 29.85 inches Hg (1011.0 mb)
Winds: from the E (80 degrees) at 6 MPH (5 knots; 2.6 m/s)
Visibility: 6 or more miles (10+ km)
Ceiling: ceiling and visibility are OK
Clouds: unknown
Weather: no significant weather observed at this time

METAR text: FDMS 231300Z VRB02KT CAVOK 31/15 Q1011 NOSIG
Conditions at: FDMS (MANZINI/MATSAPA , SZ) observed 1300 UTC 23 January 2019
Temperature: 31.0°C (88°F)
Dewpoint: 15.0°C (59°F) [RH = 38%]
Pressure (altimeter): 29.85 inches Hg (1011.0 mb)
Winds: variable direction winds at 2 MPH (2 knots; 1.0 m/s)
Visibility: 6 or more miles (10+ km)
Ceiling: ceiling and visibility are OK
Clouds: unknown
Weather: no significant weather observed at this time

METAR text: FDMS 231200Z VRB02KT CAVOK 30/15 Q1012 NOSIG
Conditions at: FDMS (MANZINI/MATSAPA , SZ) observed 1200 UTC 23 January 2019
Temperature: 30.0°C (86°F)
Dewpoint: 15.0°C (59°F) [RH = 40%]
Pressure (altimeter): 29.88 inches Hg (1012.0 mb)
Winds: variable direction winds at 2 MPH (2 knots; 1.0 m/s)
Visibility: 6 or more miles (10+ km)
Ceiling: ceiling and visibility are OK
Clouds: unknown
Weather: no significant weather observed at this time

METAR text: FDMS 231100Z VRB02KT 9999 FEW035 29/17 Q1013 NOSIG
Conditions at: FDMS (MANZINI/MATSAPA , SZ) observed 1100 UTC 23 January 2019
Temperature: 29.0°C (84°F)
Dewpoint: 17.0°C (63°F) [RH = 48%]
Pressure (altimeter): 29.91 inches Hg (1013.0 mb)
Winds: variable direction winds at 2 MPH (2 knots; 1.0 m/s)
Visibility: 6 or more miles (10+ km)
Ceiling: at least 12,000 feet AGL
Clouds: few clouds at 3500 feet AGL
Weather: no significant weather observed at this time

METAR text: FDMS 231000Z VRB02KT 9999 FEW035 27/16 Q1014 NOSIG
Conditions at: FDMS (MANZINI/MATSAPA , SZ) observed 1000 UTC 23 January 2019
Temperature: 27.0°C (81°F)
Dewpoint: 16.0°C (61°F) [RH = 51%]
Pressure (altimeter): 29.94 inches Hg (1014.0 mb)
Winds: variable direction winds at 2 MPH (2 knots; 1.0 m/s)
Visibility: 6 or more miles (10+ km)
Ceiling: at least 12,000 feet AGL
Clouds: few clouds at 3500 feet AGL
Weather: no significant weather observed at this time

METAR text: FDMS 230900Z 17004KT 9999 FEW035 26/17 Q1015 NOSIG
Conditions at: FDMS (MANZINI/MATSAPA , SZ) observed 0900 UTC 23 January 2019
Temperature: 26.0°C (79°F)
Dewpoint: 17.0°C (63°F) [RH = 58%]
Pressure (altimeter): 29.97 inches Hg (1015.0 mb)
Winds: from the S (170 degrees) at 5 MPH (4 knots; 2.1 m/s)
Visibility: 6 or more miles (10+ km)
Ceiling: at least 12,000 feet AGL
Clouds: few clouds at 3500 feet AGL
Weather: no significant weather observed at this time

METAR text: FDMS 230800Z VRB02KT 9999 SCT035 26/18 Q1015 NOSIG
Conditions at: FDMS (MANZINI/MATSAPA , SZ) observed 0800 UTC 23 January 2019
Temperature: 26.0°C (79°F)
Dewpoint: 18.0°C (64°F) [RH = 61%]
Pressure (altimeter): 29.97 inches Hg (1015.0 mb)
Winds: variable direction winds at 2 MPH (2 knots; 1.0 m/s)
Visibility: 6 or more miles (10+ km)
Ceiling: at least 12,000 feet AGL
Clouds: scattered clouds at 3500 feet AGL
Weather: no significant weather observed at this time